Time;durP1;ratioP1;P1;durP2;ratioP2;P2;SDS_P1;SDS_P2;PMS_P1;PMS_P2;Temp;Humidity;BMP_temperature;BMP_pressure;BME280_temperature;BME280_humidity;BME280_pressure;Samples;Min_cycle;Max_cycle;Signal;HPM_P1;HPM_P2
2021/03/11 00:01:42;;;;;;;0.50;0.50;;;4.50;99.90;;;;;;4860512;29;20302;-88
2021/03/11 00:04:19;;;;;;;0.60;0.60;;;4.60;99.90;;;;;;4860052;29;20215;-88
2021/03/11 00:07:00;;;;;;;;;;;;;;;;;;;;;
2021/03/11 00:10:28;;;;;;;;;;;;;;;;;;;;;
2021/03/11 00:20:07;;;;;;;0.60;0.60;;;4.30;99.90;;;;;;4785370;29;20460;-88
2021/03/11 00:22:34;;;;;;;0.52;0.52;;;4.40;99.90;;;;;;4822194;29;20215;-88
2021/03/11 00:25:17;;;;;;;0.50;0.50;;;3.80;99.90;;;;;;4849671;29;20286;-87
2021/03/11 00:27:54;;;;;;;0.60;0.60;;;4.40;99.90;;;;;;4861256;29;20310;-87
2021/03/11 00:30:28;;;;;;;0.60;0.60;;;4.30;99.90;;;;;;4860319;29;20211;-87
2021/03/11 00:33:10;;;;;;;0.50;0.50;;;4.70;99.90;;;;;;4859786;29;20618;-88
2021/03/11 00:46:45;;;;;;;0.50;0.50;;;3.50;99.90;;;;;;4757386;29;20246;-88
2021/03/11 00:59:22;;;;;;;0.60;0.60;;;4.30;99.90;;;;;;4720888;30;20240;-89
2021/03/11 01:02:17;;;;;;;;;;;;;;;;;;;;;
2021/03/11 01:04:44;;;;;;;0.60;0.60;;;4.70;99.90;;;;;;4813506;29;20256;-87
2021/03/11 01:07:11;;;;;;;0.50;0.50;;;4.50;99.90;;;;;;4801839;29;20246;-87
2021/03/11 01:09:38;;;;;;;0.55;0.55;;;4.50;99.90;;;;;;4821266;29;20258;-87
2021/03/11 01:12:06;;;;;;;0.50;0.50;;;4.20;99.90;;;;;;4858905;29;20219;-87
2021/03/11 01:14:32;;;;;;;0.50;0.50;;;4.40;99.90;;;;;;4859005;29;20623;-87
2021/03/11 01:16:59;;;;;;;0.50;0.50;;;4.30;99.90;;;;;;4858622;29;20221;-87
2021/03/11 01:19:25;;;;;;;0.50;0.50;;;5.40;99.90;;;;;;4858784;29;20294;-87
2021/03/11 01:21:55;;;;;;;0.50;0.50;;;4.00;99.90;;;;;;4858818;29;20221;-87
2021/03/11 01:24:21;;;;;;;0.50;0.50;;;4.40;99.90;;;;;;4859063;29;20235;-87
2021/03/11 01:26:48;;;;;;;0.50;0.50;;;4.20;99.90;;;;;;4858973;29;20298;-88
2021/03/11 01:29:21;;;;;;;0.50;0.50;;;4.40;99.90;;;;;;4858463;29;20639;-88
2021/03/11 01:31:48;;;;;;;0.50;0.50;;;4.70;99.90;;;;;;4858482;29;20709;-88
2021/03/11 01:34:14;;;;;;;0.50;0.50;;;4.80;99.90;;;;;;4858332;29;20266;-88
2021/03/11 01:36:50;;;;;;;0.50;0.50;;;6.20;99.90;;;;;;4858559;29;20651;-88
2021/03/11 01:39:34;;;;;;;0.50;0.50;;;4.20;99.90;;;;;;4857916;29;20226;-88
2021/03/11 01:42:15;;;;;;;0.50;0.50;;;5.80;99.90;;;;;;4857808;29;20293;-89
2021/03/11 01:45:19;;;;;;;0.50;0.50;;;4.70;99.90;;;;;;4858622;29;20483;-88
2021/03/11 01:50:51;;;;;;;0.50;0.50;;;3.50;99.90;;;;;;4857148;29;20282;-89
2021/03/11 01:53:26;;;;;;;0.40;0.40;;;4.50;99.90;;;;;;4859804;29;20215;-87
2021/03/11 01:55:55;;;;;;;0.50;0.50;;;4.80;99.90;;;;;;4869193;29;20218;-89
2021/03/11 01:58:21;;;;;;;0.50;0.50;;;5.60;99.90;;;;;;4870166;29;20300;-87
2021/03/11 02:00:52;;;;;;;0.50;0.50;;;5.60;99.90;;;;;;4881500;29;20265;-87
2021/03/11 02:03:19;;;;;;;0.50;0.50;;;6.10;99.90;;;;;;4886375;29;20246;-87
2021/03/11 02:05:57;;;;;;;0.50;0.50;;;3.30;99.90;;;;;;4880646;29;20269;-88
2021/03/11 02:08:29;;;;;;;0.50;0.50;;;4.40;99.90;;;;;;4877565;29;20277;-88
2021/03/11 02:10:56;;;;;;;0.50;0.50;;;4.30;99.90;;;;;;4877009;29;20305;-87
2021/03/11 02:13:32;;;;;;;0.50;0.50;;;4.40;99.90;;;;;;4877157;29;20211;-87
2021/03/11 02:16:07;;;;;;;0.50;0.50;;;6.30;99.90;;;;;;4876541;29;20729;-87
2021/03/11 02:18:41;;;;;;;0.50;0.50;;;4.20;99.90;;;;;;4876878;29;20328;-87
2021/03/11 02:21:10;;;;;;;0.50;0.50;;;5.90;99.90;;;;;;4880492;29;20206;-86
2021/03/11 02:24:28;;;;;;;0.50;0.50;;;4.00;99.90;;;;;;4883595;29;20226;-86
2021/03/11 02:27:24;;;;;;;0.50;0.50;;;4.30;99.90;;;;;;4881883;29;20297;-86
2021/03/11 02:29:53;;;;;;;0.50;0.50;;;5.40;99.90;;;;;;4880341;29;20293;-86
2021/03/11 02:32:27;;;;;;;0.50;0.50;;;5.90;99.90;;;;;;4880107;29;20214;-87
2021/03/11 02:34:57;;;;;;;0.50;0.50;;;4.50;99.90;;;;;;4880246;29;20216;-86
2021/03/11 02:37:30;;;;;;;0.50;0.50;;;4.20;99.90;;;;;;4880132;29;20330;-87
2021/03/11 02:39:59;;;;;;;0.50;0.50;;;4.20;99.90;;;;;;4879956;29;20225;-87
2021/03/11 02:42:26;;;;;;;0.50;0.50;;;3.80;99.90;;;;;;4879702;29;20242;-87
2021/03/11 02:44:54;;;;;;;0.50;0.50;;;3.90;99.90;;;;;;4879546;29;20294;-86
2021/03/11 02:47:21;;;;;;;0.50;0.50;;;4.10;99.90;;;;;;4879703;29;20207;-86
2021/03/11 02:49:50;;;;;;;0.50;0.50;;;4.40;99.90;;;;;;4880056;29;20278;-86
2021/03/11 02:52:19;;;;;;;0.50;0.50;;;3.80;99.90;;;;;;4879502;29;20217;-87
2021/03/11 02:54:46;;;;;;;0.50;0.50;;;4.10;99.90;;;;;;4879648;29;20211;-87
2021/03/11 02:57:14;;;;;;;0.50;0.50;;;6.00;99.90;;;;;;4879383;29;20210;-88
2021/03/11 02:59:42;;;;;;;0.50;0.50;;;4.10;99.90;;;;;;4879408;29;20266;-87
2021/03/11 03:02:10;;;;;;;0.40;0.40;;;4.00;99.90;;;;;;4879579;29;20207;-88
2021/03/11 03:04:39;;;;;;;0.40;0.40;;;5.50;99.90;;;;;;4879719;29;20911;-87
2021/03/11 03:07:09;;;;;;;0.50;0.50;;;4.20;99.90;;;;;;4879459;29;20203;-88
2021/03/11 03:09:36;;;;;;;0.50;0.50;;;5.20;99.90;;;;;;4879284;29;20214;-88
2021/03/11 03:12:08;;;;;;;0.50;0.50;;;6.00;99.90;;;;;;4879044;29;20297;-87
2021/03/11 03:14:49;;;;;;;0.50;0.50;;;4.30;99.90;;;;;;4879277;29;20292;-86
2021/03/11 03:17:20;;;;;;;0.50;0.50;;;4.40;99.90;;;;;;4878751;29;20217;-88
2021/03/11 03:19:54;;;;;;;0.50;0.50;;;4.40;99.90;;;;;;4878627;29;20777;-88
2021/03/11 03:22:25;;;;;;;0.47;0.47;;;4.40;99.90;;;;;;4879012;29;20675;-88
2021/03/11 03:24:51;;;;;;;0.50;0.50;;;4.20;99.90;;;;;;4879048;29;20206;-86
2021/03/11 03:27:22;;;;;;;0.40;0.40;;;5.10;99.90;;;;;;4879052;29;20777;-87
2021/03/11 03:29:51;;;;;;;0.40;0.40;;;4.50;99.90;;;;;;4879399;29;20234;-89
2021/03/11 03:32:19;;;;;;;0.43;0.43;;;4.00;99.90;;;;;;4878576;29;20211;-88
2021/03/11 03:34:48;;;;;;;0.50;0.50;;;4.40;99.90;;;;;;4878822;29;20449;-88
2021/03/11 03:37:15;;;;;;;0.50;0.50;;;4.40;99.90;;;;;;4878919;29;20202;-89
2021/03/11 03:39:41;;;;;;;0.40;0.40;;;6.00;99.90;;;;;;4878498;29;20234;-88
2021/03/11 03:42:16;;;;;;;0.40;0.40;;;4.50;99.90;;;;;;4878509;29;20279;-87
2021/03/11 03:44:44;;;;;;;0.50;0.50;;;6.20;99.90;;;;;;4878504;29;20321;-87
2021/03/11 03:47:12;;;;;;;0.40;0.40;;;4.50;99.90;;;;;;4878183;29;20210;-86
2021/03/11 03:49:40;;;;;;;0.40;0.40;;;4.40;99.90;;;;;;4878457;29;20210;-87
2021/03/11 03:52:08;;;;;;;0.50;0.50;;;4.20;99.90;;;;;;4878579;29;20263;-87
2021/03/11 03:54:42;;;;;;;0.40;0.40;;;4.20;99.90;;;;;;4878650;29;20552;-88
2021/03/11 03:57:13;;;;;;;0.40;0.40;;;6.10;99.90;;;;;;4878361;29;20202;-87
2021/03/11 03:59:41;;;;;;;0.40;0.40;;;4.90;99.90;;;;;;4878316;29;20234;-87
2021/03/11 04:02:18;;;;;;;0.40;0.40;;;5.50;99.90;;;;;;4878497;29;20298;-87
2021/03/11 04:04:50;;;;;;;0.50;0.50;;;4.40;99.90;;;;;;4878249;29;20673;-87
2021/03/11 04:07:27;;;;;;;0.40;0.40;;;5.90;99.90;;;;;;4878167;29;20218;-89
2021/03/11 04:09:54;;;;;;;0.40;0.40;;;5.80;99.90;;;;;;4878046;29;20201;-88
2021/03/11 04:12:24;;;;;;;0.40;0.40;;;6.50;99.90;;;;;;4878063;29;20309;-89
2021/03/11 04:14:52;;;;;;;0.40;0.40;;;4.50;99.90;;;;;;4878253;29;20570;-87
2021/03/11 04:17:29;;;;;;;0.50;0.50;;;6.40;99.90;;;;;;4878085;29;20214;-88
2021/03/11 04:20:10;;;;;;;0.40;0.40;;;4.60;99.90;;;;;;4877869;29;20648;-87
2021/03/11 04:22:42;;;;;;;0.40;0.40;;;4.60;99.90;;;;;;4878074;29;20210;-88
2021/03/11 04:25:13;;;;;;;0.40;0.40;;;4.70;99.90;;;;;;4877610;29;20221;-89
2021/03/11 04:27:43;;;;;;;0.40;0.40;;;6.10;99.90;;;;;;4877937;29;20309;-87
2021/03/11 04:30:13;;;;;;;0.40;0.40;;;5.00;99.90;;;;;;4877474;29;20229;-87
2021/03/11 04:32:46;;;;;;;0.40;0.40;;;4.80;99.90;;;;;;4877417;29;20243;-87
2021/03/11 04:35:31;;;;;;;0.40;0.40;;;4.60;99.90;;;;;;4877057;29;20206;-87
2021/03/11 04:38:05;;;;;;;0.50;0.50;;;5.40;99.90;;;;;;4877452;29;20551;-87
2021/03/11 04:40:41;;;;;;;0.40;0.40;;;5.40;99.90;;;;;;4877491;29;20293;-87
2021/03/11 04:43:20;;;;;;;0.40;0.40;;;4.60;99.90;;;;;;4876968;29;20297;-87
2021/03/11 04:46:00;;;;;;;0.40;0.40;;;4.70;99.90;;;;;;4877875;29;20214;-88
2021/03/11 04:48:34;;;;;;;0.40;0.40;;;4.50;99.90;;;;;;4877972;29;20206;-88
2021/03/11 04:51:02;;;;;;;0.40;0.40;;;4.40;99.90;;;;;;4878023;29;20207;-87
2021/03/11 04:53:29;;;;;;;0.40;0.40;;;5.60;99.90;;;;;;4877863;29;20209;-88
2021/03/11 04:55:58;;;;;;;0.40;0.40;;;4.90;99.90;;;;;;4877759;29;20214;-88
2021/03/11 04:58:43;;;;;;;0.40;0.40;;;4.70;99.90;;;;;;4877111;29;20206;-88
2021/03/11 05:01:31;;;;;;;0.40;0.40;;;4.70;99.90;;;;;;4877090;29;20230;-88
2021/03/11 05:03:58;;;;;;;0.40;0.40;;;4.50;99.90;;;;;;4877077;29;20245;-87
2021/03/11 05:06:58;;;;;;;0.40;0.40;;;4.40;99.90;;;;;;4877237;29;20757;-88
2021/03/11 05:12:57;;;;;;;0.40;0.40;;;4.60;99.90;;;;;;4870543;29;20592;-88
2021/03/11 05:15:30;;;;;;;0.40;0.40;;;6.10;99.90;;;;;;4876837;29;20221;-87
2021/03/11 05:18:15;;;;;;;0.40;0.40;;;4.70;99.90;;;;;;4876634;29;20214;-87
2021/03/11 05:20:56;;;;;;;0.40;0.40;;;4.60;99.90;;;;;;4876510;29;20234;-87
2021/03/11 05:23:32;;;;;;;0.40;0.40;;;6.10;99.90;;;;;;4876898;29;20241;-88
2021/03/11 05:25:59;;;;;;;0.40;0.40;;;5.80;99.90;;;;;;4877068;29;20782;-87
2021/03/11 05:28:27;;;;;;;0.40;0.40;;;6.40;99.90;;;;;;4877057;29;20232;-88
2021/03/11 05:30:55;;;;;;;0.40;0.40;;;5.50;99.90;;;;;;4877138;29;20233;-86
2021/03/11 05:33:24;;;;;;;0.50;0.50;;;6.70;99.90;;;;;;4876879;29;20579;-87
2021/03/11 05:35:50;;;;;;;0.40;0.40;;;6.20;99.90;;;;;;4876980;29;20700;-87
2021/03/11 05:41:41;;;;;;;0.40;0.40;;;6.30;99.90;;;;;;4741113;29;20210;-87
2021/03/11 05:44:11;;;;;;;0.40;0.40;;;4.80;99.90;;;;;;4877456;29;20262;-88
2021/03/11 05:46:51;;;;;;;0.40;0.40;;;5.20;99.90;;;;;;4877413;29;20233;-87
2021/03/11 05:49:25;;;;;;;0.40;0.40;;;5.00;99.90;;;;;;4877802;29;20217;-88
2021/03/11 05:52:04;;;;;;;0.40;0.40;;;4.60;99.90;;;;;;4877557;29;20233;-88
2021/03/11 05:54:37;;;;;;;0.47;0.47;;;5.10;99.90;;;;;;4878374;29;20222;-88
2021/03/11 05:57:32;;;;;;;0.40;0.40;;;4.60;99.90;;;;;;4878976;29;20221;-87
2021/03/11 06:00:01;;;;;;;0.40;0.40;;;4.80;99.90;;;;;;4875585;29;20262;-87
2021/03/11 06:02:37;;;;;;;0.40;0.40;;;6.10;99.90;;;;;;4879506;29;20214;-87
2021/03/11 06:05:38;;;;;;;0.40;0.40;;;4.90;99.90;;;;;;4877943;29;20278;-88
2021/03/11 06:08:26;;;;;;;0.40;0.40;;;5.50;99.90;;;;;;4877570;29;20209;-89
2021/03/11 06:11:05;;;;;;;0.40;0.40;;;4.90;99.90;;;;;;4878657;29;20232;-87
2021/03/11 06:13:38;;;;;;;0.40;0.40;;;4.80;99.90;;;;;;4878839;29;20246;-87
2021/03/11 06:16:15;;;;;;;0.40;0.40;;;5.00;99.90;;;;;;4881419;29;20210;-87
2021/03/11 06:18:57;;;;;;;0.40;0.40;;;4.60;99.90;;;;;;4894679;29;20214;-88
2021/03/11 06:21:31;;;;;;;0.40;0.40;;;6.20;99.90;;;;;;4894398;29;20210;-88
2021/03/11 06:24:07;;;;;;;0.40;0.40;;;6.40;99.90;;;;;;4877401;29;20246;-88
2021/03/11 06:44:03;;;;;;;0.40;0.40;;;4.90;99.90;;;;;;4830810;29;20215;-89
2021/03/11 06:46:58;;;;;;;0.40;0.40;;;3.80;99.90;;;;;;4829980;29;20206;-88
2021/03/11 06:49:24;;;;;;;0.40;0.40;;;5.70;99.90;;;;;;4888685;29;20201;-88
2021/03/11 06:55:32;;;;;;;;;;;;;;;;;;;;;
2021/03/11 06:58:26;;;;;;;0.40;0.40;;;4.50;99.90;;;;;;4893463;29;20205;-90
2021/03/11 07:01:25;;;;;;;0.40;0.40;;;6.00;99.90;;;;;;4889547;29;20312;-89
2021/03/11 07:03:55;;;;;;;0.40;0.40;;;5.10;99.90;;;;;;4860788;29;20217;-89
2021/03/11 07:06:34;;;;;;;0.40;0.40;;;5.20;99.90;;;;;;4888616;29;20210;-88
2021/03/11 07:09:10;;;;;;;0.40;0.40;;;6.20;99.90;;;;;;4890334;29;20233;-88
2021/03/11 07:12:13;;;;;;;0.40;0.40;;;5.10;99.90;;;;;;4888350;29;20239;-87
2021/03/11 07:15:16;;;;;;;0.40;0.40;;;5.30;99.90;;;;;;4889575;29;20701;-89
2021/03/11 07:22:02;;;;;;;0.40;0.40;;;6.10;99.90;;;;;;4851950;29;20224;-89
2021/03/11 07:28:35;;;;;;;0.40;0.40;;;5.20;99.90;;;;;;4848619;29;20210;-89
2021/03/11 07:31:04;;;;;;;0.40;0.40;;;5.30;99.90;;;;;;4869114;29;20245;-87
2021/03/11 07:33:38;;;;;;;0.40;0.40;;;5.00;99.90;;;;;;4889662;29;20218;-87
2021/03/11 07:36:19;;;;;;;0.40;0.40;;;6.80;99.90;;;;;;4889179;29;20206;-88
2021/03/11 07:39:22;;;;;;;0.40;0.40;;;4.90;99.90;;;;;;4888738;29;20286;-87
2021/03/11 07:46:06;;;;;;;0.40;0.40;;;5.50;99.90;;;;;;4789442;29;20674;-88
2021/03/11 07:48:37;;;;;;;0.40;0.40;;;5.60;99.90;;;;;;4840007;29;20217;-87
2021/03/11 07:51:05;;;;;;;0.40;0.40;;;7.10;99.90;;;;;;4891365;29;20214;-88
2021/03/11 07:53:48;;;;;;;0.40;0.40;;;5.60;99.90;;;;;;4886454;29;20221;-87
2021/03/11 07:56:17;;;;;;;0.40;0.40;;;5.00;99.90;;;;;;4889831;29;20205;-87
2021/03/11 07:58:50;;;;;;;0.40;0.40;;;5.60;99.90;;;;;;4889477;29;20214;-87
2021/03/11 08:01:17;;;;;;;0.40;0.40;;;5.80;99.90;;;;;;4890756;29;20285;-88
2021/03/11 08:03:49;;;;;;;0.40;0.40;;;5.70;99.90;;;;;;4890875;29;20218;-88
2021/03/11 08:06:24;;;;;;;0.40;0.40;;;5.80;99.90;;;;;;4886730;29;20214;-88
2021/03/11 08:15:34;;;;;;;0.40;0.40;;;7.50;99.90;;;;;;4821322;23;20240;-79
2021/03/11 08:23:12;;;;;;;0.40;0.40;;;6.10;99.90;;;;;;4986587;23;20256;-80
2021/03/11 08:25:43;;;;;;;0.40;0.40;;;6.20;99.90;;;;;;4903720;29;20216;-79
2021/03/11 08:28:40;;;;;;;0.40;0.40;;;6.20;99.90;;;;;;4897009;29;20235;-79
2021/03/11 08:31:07;;;;;;;0.40;0.40;;;6.20;99.90;;;;;;4894145;29;20206;-79
2021/03/11 08:33:47;;;;;;;0.40;0.40;;;6.30;99.90;;;;;;4883422;29;20239;-79
2021/03/11 08:36:36;;;;;;;0.40;0.40;;;6.30;99.90;;;;;;4891913;29;20630;-79
2021/03/11 08:39:20;;;;;;;0.40;0.40;;;6.30;99.90;;;;;;4895485;29;20201;-79
2021/03/11 08:41:46;;;;;;;0.40;0.40;;;6.40;99.90;;;;;;4886639;29;20582;-79
2021/03/11 08:44:46;;;;;;;0.40;0.40;;;6.40;99.90;;;;;;4928170;23;20251;-79
2021/03/11 08:47:14;;;;;;;0.40;0.40;;;6.50;99.90;;;;;;4919715;29;20230;-79
2021/03/11 08:49:44;;;;;;;0.40;0.40;;;6.50;99.90;;;;;;4912918;29;20217;-79
2021/03/11 08:52:42;;;;;;;0.40;0.40;;;6.60;99.90;;;;;;4917568;29;20320;-79
2021/03/11 08:55:36;;;;;;;0.40;0.40;;;6.60;99.90;;;;;;4920015;29;20235;-79
2021/03/11 08:58:03;;;;;;;0.40;0.40;;;6.70;99.90;;;;;;4897497;29;20218;-79
2021/03/11 09:01:01;;;;;;;0.40;0.40;;;6.80;99.90;;;;;;4898650;29;20218;-79
2021/03/11 09:03:44;;;;;;;0.40;0.40;;;7.10;99.90;;;;;;4906152;29;20217;-79
2021/03/11 09:08:59;;;;;;;0.40;0.40;;;7.30;99.90;;;;;;5710200;23;20248;-79
2021/03/11 09:19:38;;;;;;;0.40;0.40;;;7.40;99.90;;;;;;5405127;23;20221;-79
2021/03/11 09:22:31;;;;;;;0.40;0.40;;;7.50;99.90;;;;;;4952657;29;20224;-79
2021/03/11 09:25:02;;;;;;;0.40;0.40;;;7.80;99.90;;;;;;4946451;28;20205;-79
2021/03/11 09:37:02;;;;;;;0.50;0.50;;;9.50;99.90;;;;;;4908580;29;20287;-88
2021/03/11 09:47:22;;;;;;;;;;;;;;;;;;;;;
2021/03/11 10:00:57;;;;;;;0.50;0.50;;;8.10;99.90;;;;;;4656162;30;20242;-88
2021/03/11 10:03:45;;;;;;;0.50;0.50;;;8.00;99.90;;;;;;4729304;30;20300;-86
2021/03/11 10:06:30;;;;;;;0.50;0.50;;;8.00;99.90;;;;;;4731211;30;20438;-87
2021/03/11 10:12:39;;;;;;;0.50;0.50;;;8.50;99.90;;;;;;4786776;29;20550;-90
2021/03/11 10:15:15;;;;;;;0.50;0.50;;;7.60;99.90;;;;;;4826989;29;20212;-88
2021/03/11 10:17:45;;;;;;;0.50;0.50;;;8.20;99.90;;;;;;4903922;29;20208;-90
2021/03/11 10:20:29;;;;;;;0.50;0.50;;;8.10;99.90;;;;;;4919380;29;20275;-89
2021/03/11 10:23:15;;;;;;;0.50;0.50;;;8.60;99.90;;;;;;4918272;29;20890;-89
2021/03/11 10:25:43;;;;;;;0.50;0.50;;;8.20;99.90;;;;;;4915075;29;20208;-88
2021/03/11 10:28:12;;;;;;;0.50;0.50;;;8.40;99.90;;;;;;4902996;29;20218;-88
2021/03/11 10:30:42;;;;;;;0.50;0.50;;;8.20;99.90;;;;;;4916439;29;20209;-87
2021/03/11 10:33:46;;;;;;;;;;;;;;;;;;;;;
2021/03/11 10:36:37;;;;;;;0.50;0.50;;;8.60;99.90;;;;;;4906032;29;20209;-89
2021/03/11 10:39:29;;;;;;;0.50;0.50;;;8.70;99.90;;;;;;4915377;29;20255;-89
2021/03/11 10:42:50;;;;;;;0.40;0.40;;;9.00;99.90;;;;;;4916844;29;20293;-89
2021/03/11 11:12:13;;;;;;;0.50;0.50;;;7.60;99.90;;;;;;4865816;29;20282;-87
2021/03/11 11:18:13;;;;;;;0.50;0.50;;;9.30;99.90;;;;;;4866944;29;20211;-87
2021/03/11 11:21:19;;;;;;;0.50;0.50;;;9.50;99.90;;;;;;4918813;29;20276;-89
2021/03/11 11:23:48;;;;;;;0.50;0.50;;;9.90;99.90;;;;;;4929537;29;20205;-89
2021/03/11 11:27:09;;;;;;;0.50;0.50;;;10.10;99.90;;;;;;4931674;29;20201;-91
2021/03/11 11:30:08;;;;;;;0.50;0.50;;;11.40;99.90;;;;;;4846974;29;20232;-90
2021/03/11 11:33:26;;;;;;;;;;;;;;;;;;;;;
2021/03/11 11:46:35;;;;;;;0.50;0.50;;;9.30;99.90;;;;;;4865089;29;20194;-87
2021/03/11 11:49:05;;;;;;;0.60;0.60;;;13.00;99.90;;;;;;4863887;29;20211;-87
2021/03/11 11:54:37;;;;;;;0.60;0.60;;;12.00;99.90;;;;;;4898139;29;20213;-88
2021/03/11 11:57:08;;;;;;;0.60;0.60;;;12.10;99.90;;;;;;4917658;29;20626;-87
2021/03/11 12:00:16;;;;;;;0.60;0.60;;;12.20;99.90;;;;;;4915550;29;20253;-88
2021/03/11 12:02:49;;;;;;;0.60;0.60;;;11.50;99.90;;;;;;4843734;29;20220;-87
2021/03/11 12:15:32;;;;;;;0.50;0.50;;;11.10;99.90;;;;;;4827366;23;20363;-85
2021/03/11 12:18:00;;;;;;;0.60;0.60;;;11.20;99.90;;;;;;4915000;29;20652;-85
2021/03/11 12:20:26;;;;;;;0.60;0.60;;;11.40;99.90;;;;;;4916217;29;20260;-84
2021/03/11 12:22:52;;;;;;;0.60;0.60;;;10.10;99.90;;;;;;4914717;29;20205;-85
2021/03/11 12:25:22;;;;;;;0.50;0.50;;;11.00;99.90;;;;;;4920078;29;20213;-85
2021/03/11 12:27:48;;;;;;;0.55;0.55;;;11.10;99.90;;;;;;4924285;29;20216;-84
2021/03/11 12:30:18;;;;;;;0.50;0.50;;;11.00;99.90;;;;;;4914564;29;20201;-85
2021/03/11 12:32:48;;;;;;;0.60;0.60;;;11.20;99.90;;;;;;4916639;29;20209;-85
2021/03/11 12:35:18;;;;;;;0.60;0.60;;;11.20;99.90;;;;;;4904738;29;20213;-83
2021/03/11 12:37:47;;;;;;;0.60;0.60;;;11.00;99.90;;;;;;4918098;29;20265;-84
2021/03/11 12:40:16;;;;;;;0.60;0.60;;;10.50;99.90;;;;;;4917173;29;20284;-84
2021/03/11 12:42:46;;;;;;;0.60;0.60;;;10.60;99.90;;;;;;4916247;29;20209;-85
2021/03/11 12:45:16;;;;;;;0.60;0.60;;;10.90;99.90;;;;;;4917345;29;20201;-84
2021/03/11 12:47:43;;;;;;;0.60;0.60;;;11.70;99.90;;;;;;4911562;29;20217;-85
2021/03/11 12:50:10;;;;;;;0.60;0.60;;;12.00;99.90;;;;;;4917622;29;20229;-85
2021/03/11 12:52:37;;;;;;;0.60;0.60;;;12.40;99.90;;;;;;4903160;29;20220;-84
2021/03/11 12:55:07;;;;;;;0.60;0.60;;;12.10;99.90;;;;;;4924321;29;20658;-84
2021/03/11 12:57:41;;;;;;;0.60;0.60;;;11.70;99.90;;;;;;5006243;23;20329;-84
2021/03/11 13:00:12;;;;;;;0.60;0.60;;;10.10;99.90;;;;;;4916719;29;20231;-88
2021/03/11 13:02:38;;;;;;;0.60;0.60;;;13.00;99.90;;;;;;4914037;29;20217;-85
2021/03/11 13:05:06;;;;;;;0.55;0.55;;;13.20;99.90;;;;;;4907273;29;20220;-86
2021/03/11 13:07:33;;;;;;;0.60;0.60;;;12.30;99.90;;;;;;4916469;28;20296;-86
2021/03/11 13:10:02;;;;;;;0.60;0.60;;;12.20;99.90;;;;;;4918348;29;20668;-87
2021/03/11 13:12:29;;;;;;;0.60;0.60;;;12.10;99.90;;;;;;4915279;29;20570;-86
2021/03/11 13:14:55;;;;;;;0.60;0.60;;;12.00;99.90;;;;;;4903990;29;20742;-87
2021/03/11 13:17:23;;;;;;;0.60;0.60;;;11.70;99.90;;;;;;4896005;29;20213;-88
2021/03/11 13:19:49;;;;;;;0.52;0.52;;;11.50;99.90;;;;;;4909224;29;20323;-87
2021/03/11 13:22:16;;;;;;;0.60;0.60;;;11.00;99.90;;;;;;4912214;29;20684;-87
2021/03/11 13:24:43;;;;;;;0.57;0.57;;;10.80;99.90;;;;;;4914211;29;20635;-88
2021/03/11 13:27:13;;;;;;;0.60;0.60;;;10.60;99.90;;;;;;4907394;29;20221;-90
2021/03/11 13:29:39;;;;;;;0.60;0.60;;;10.20;99.90;;;;;;4914349;29;20212;-87
2021/03/11 13:32:08;;;;;;;0.50;0.50;;;10.50;99.90;;;;;;4930581;28;20209;-84
2021/03/11 13:34:44;;;;;;;0.57;0.57;;;9.70;99.90;;;;;;4927662;29;20602;-86
2021/03/11 13:37:11;;;;;;;0.60;0.60;;;9.70;99.90;;;;;;4921146;29;20286;-84
2021/03/11 13:39:38;;;;;;;0.50;0.50;;;10.10;99.90;;;;;;4925139;29;20236;-83
2021/03/11 13:42:06;;;;;;;0.60;0.60;;;9.60;99.90;;;;;;4910525;29;20213;-90
2021/03/11 13:44:33;;;;;;;0.50;0.50;;;8.40;99.90;;;;;;4911767;29;20307;-85
2021/03/11 13:46:59;;;;;;;0.50;0.50;;;10.40;99.90;;;;;;4906133;29;20692;-85
2021/03/11 13:49:28;;;;;;;0.50;0.50;;;9.50;99.90;;;;;;4906247;29;20303;-84
2021/03/11 13:51:54;;;;;;;0.60;0.60;;;9.50;99.90;;;;;;4909768;29;20254;-85
2021/03/11 13:54:20;;;;;;;0.50;0.50;;;9.20;99.90;;;;;;4906180;29;20579;-85
2021/03/11 13:56:46;;;;;;;0.50;0.50;;;8.80;99.90;;;;;;4909468;29;20273;-84
2021/03/11 13:59:12;;;;;;;0.60;0.60;;;9.70;99.90;;;;;;4907901;29;20213;-84
2021/03/11 14:01:41;;;;;;;0.60;0.60;;;10.40;99.90;;;;;;4898034;29;20284;-86
2021/03/11 14:13:05;;;;;;;0.50;0.50;;;9.70;99.90;;;;;;5407290;23;20217;-83
2021/03/11 14:18:13;;;;;;;0.50;0.50;;;9.60;99.90;;;;;;5147071;23;20247;-83
2021/03/11 14:20:42;;;;;;;0.57;0.57;;;10.10;99.90;;;;;;4947051;23;20237;-86
2021/03/11 14:23:15;;;;;;;0.60;0.60;;;10.30;99.90;;;;;;4919678;29;20873;-86
2021/03/11 14:26:04;;;;;;;0.50;0.50;;;7.50;99.90;;;;;;4918467;29;20209;-87
2021/03/11 14:29:17;;;;;;;0.50;0.50;;;8.30;99.90;;;;;;4918258;29;20212;-88
2021/03/11 14:32:39;;;;;;;0.55;0.55;;;9.40;99.90;;;;;;4919305;29;20235;-88
2021/03/11 14:35:37;;;;;;;0.50;0.50;;;8.20;99.90;;;;;;4823230;29;20212;-86
2021/03/11 14:41:43;;;;;;;0.50;0.50;;;7.40;99.90;;;;;;4825999;29;20238;-86
2021/03/11 14:44:23;;;;;;;0.52;0.52;;;6.40;99.90;;;;;;4825195;29;20241;-88
2021/03/11 14:46:57;;;;;;;0.50;0.50;;;8.30;99.90;;;;;;4825330;29;20236;-87
2021/03/11 14:49:26;;;;;;;0.50;0.50;;;8.00;99.90;;;;;;4867519;29;20317;-88
2021/03/11 14:52:10;;;;;;;0.50;0.50;;;7.10;99.90;;;;;;4920801;29;20240;-87
2021/03/11 14:55:03;;;;;;;0.55;0.55;;;7.90;99.90;;;;;;4920303;29;20219;-87
2021/03/11 14:57:41;;;;;;;0.60;0.60;;;8.60;99.90;;;;;;4920442;29;20257;-87
2021/03/11 15:07:59;;;;;;;0.60;0.60;;;9.50;99.90;;;;;;4896971;29;20325;-87
2021/03/11 15:10:31;;;;;;;0.60;0.60;;;7.90;99.90;;;;;;4879533;29;20574;-88
2021/03/11 15:13:24;;;;;;;0.50;0.50;;;8.70;99.90;;;;;;4879934;29;20210;-87
2021/03/11 15:16:32;;;;;;;;;;;;;;;;;;;;;
2021/03/11 15:19:31;;;;;;;0.60;0.60;;;8.90;99.90;;;;;;4880152;29;20626;-88
2021/03/11 15:49:01;;;;;;;0.50;0.50;;;9.10;99.90;;;;;;4807373;29;20263;-87
2021/03/11 15:51:33;;;;;;;0.60;0.60;;;5.80;99.90;;;;;;4818978;29;20212;-88
2021/03/11 15:54:33;;;;;;;;;;;;;;;;;;;;;
2021/03/11 15:57:19;;;;;;;0.55;0.55;;;9.10;99.90;;;;;;4914672;29;20205;-87
2021/03/11 16:00:06;;;;;;;0.50;0.50;;;9.00;99.90;;;;;;4901443;29;20691;-88
2021/03/11 16:36:48;;;;;;;0.50;0.50;;;11.10;99.90;;;;;;4683955;23;20380;-83
2021/03/11 16:39:14;;;;;;;0.60;0.60;;;8.70;99.90;;;;;;4895079;29;20685;-82
2021/03/11 16:41:41;;;;;;;0.60;0.60;;;8.30;99.90;;;;;;4895567;29;20229;-83
2021/03/11 16:44:08;;;;;;;0.60;0.60;;;8.40;99.90;;;;;;4896085;29;20246;-84
2021/03/11 16:46:34;;;;;;;0.60;0.60;;;7.70;99.90;;;;;;4895612;29;20206;-84
2021/03/11 16:49:01;;;;;;;0.50;0.50;;;7.40;99.90;;;;;;4896208;29;20951;-83
2021/03/11 16:51:27;;;;;;;0.60;0.60;;;7.20;99.90;;;;;;4896888;29;20237;-84
2021/03/11 16:53:54;;;;;;;0.50;0.50;;;7.20;99.90;;;;;;4895382;29;20216;-83
2021/03/11 16:56:20;;;;;;;0.50;0.50;;;7.60;99.90;;;;;;4895261;29;20670;-86
2021/03/11 16:58:46;;;;;;;0.50;0.50;;;7.00;99.90;;;;;;4895284;29;20214;-84
2021/03/11 17:01:23;;;;;;;0.60;0.60;;;7.20;99.90;;;;;;5146432;27;20563;-85
2021/03/11 17:03:52;;;;;;;0.60;0.60;;;7.20;99.90;;;;;;5149186;27;20205;-84
2021/03/11 17:06:19;;;;;;;0.60;0.60;;;7.00;99.90;;;;;;5148556;27;20229;-85
2021/03/11 17:08:45;;;;;;;0.55;0.55;;;7.30;99.90;;;;;;5150646;27;20204;-85
2021/03/11 17:11:12;;;;;;;0.50;0.50;;;6.70;99.90;;;;;;5148482;27;20197;-85
2021/03/11 17:13:41;;;;;;;0.60;0.60;;;6.60;99.90;;;;;;5148477;27;20219;-84
2021/03/11 17:16:07;;;;;;;0.57;0.57;;;7.00;99.90;;;;;;5148215;27;20225;-84
2021/03/11 17:18:36;;;;;;;0.50;0.50;;;6.00;99.90;;;;;;5148253;27;20588;-85
2021/03/11 17:21:02;;;;;;;0.60;0.60;;;7.10;99.90;;;;;;5148018;27;20490;-84
2021/03/11 17:23:29;;;;;;;0.50;0.50;;;7.30;99.90;;;;;;5147916;27;20255;-86
2021/03/11 17:25:58;;;;;;;0.60;0.60;;;7.50;99.90;;;;;;5149521;27;20213;-86
2021/03/11 17:28:27;;;;;;;0.60;0.60;;;7.00;99.90;;;;;;5152182;27;20201;-85
2021/03/11 17:30:55;;;;;;;0.60;0.60;;;7.30;99.90;;;;;;5147212;27;20682;-84
2021/03/11 17:33:21;;;;;;;0.50;0.50;;;7.50;99.90;;;;;;5147959;27;20204;-86
2021/03/11 17:35:48;;;;;;;0.50;0.50;;;7.70;99.90;;;;;;5142927;27;20253;-84
2021/03/11 17:38:18;;;;;;;0.50;0.50;;;7.40;99.90;;;;;;5146758;27;20204;-85
2021/03/11 17:40:45;;;;;;;0.60;0.60;;;7.40;99.90;;;;;;5147074;27;20212;-85
2021/03/11 17:43:11;;;;;;;0.60;0.60;;;7.30;99.90;;;;;;5148145;27;20197;-85
2021/03/11 17:45:39;;;;;;;0.60;0.60;;;6.60;99.90;;;;;;5145939;27;20220;-86
2021/03/11 17:48:09;;;;;;;0.50;0.50;;;7.40;99.90;;;;;;5142920;27;20207;-85
2021/03/11 17:50:36;;;;;;;0.50;0.50;;;7.40;99.90;;;;;;5140631;27;20217;-84
2021/03/11 17:53:04;;;;;;;0.60;0.60;;;7.30;99.90;;;;;;5142252;27;20205;-84
2021/03/11 17:55:33;;;;;;;0.60;0.60;;;7.40;99.90;;;;;;5143610;27;20591;-85
2021/03/11 17:58:01;;;;;;;0.50;0.50;;;7.80;99.90;;;;;;5142259;27;20204;-84
2021/03/11 18:00:32;;;;;;;0.52;0.52;;;7.20;99.90;;;;;;5143007;27;20236;-84
2021/03/11 18:03:01;;;;;;;0.60;0.60;;;7.40;99.90;;;;;;5147509;27;20201;-85
2021/03/11 18:05:35;;;;;;;0.60;0.60;;;6.20;99.90;;;;;;5146968;27;20197;-84
2021/03/11 18:08:01;;;;;;;0.57;0.57;;;8.40;99.90;;;;;;5147637;27;20197;-84
2021/03/11 18:10:28;;;;;;;0.60;0.60;;;9.40;99.90;;;;;;5144795;27;20226;-84